Time;durP1;ratioP1;P1;durP2;ratioP2;P2;SDS_P1;SDS_P2;PMS_P1;PMS_P2;Temp;Humidity;BMP_temperature;BMP_pressure;BME280_temperature;BME280_humidity;BME280_pressure;Samples;Min_cycle;Max_cycle;Signal;HPM_P1;HPM_P2
2022/04/08 00:02:09;;;;;;;128.97;79.97;;;;;;;;;;5014107;28;20404;-61
2022/04/08 00:04:35;;;;;;;121.07;76.53;;;;;;;;;;5014364;28;20424;-61
2022/04/08 00:07:01;;;;;;;125.00;80.30;;;;;;;;;;5014293;28;20558;-61
2022/04/08 00:09:27;;;;;;;127.80;80.65;;;;;;;;;;5014348;28;20412;-61
2022/04/08 00:11:53;;;;;;;121.70;78.67;;;;;;;;;;5013394;28;20181;-60
2022/04/08 00:14:20;;;;;;;130.30;80.57;;;;;;;;;;5014112;28;20515;-61
2022/04/08 00:16:46;;;;;;;126.57;80.70;;;;;;;;;;5014058;28;20188;-61
2022/04/08 00:19:12;;;;;;;126.45;79.43;;;;;;;;;;4996684;28;20178;-61
2022/04/08 00:21:38;;;;;;;147.30;84.10;;;;;;;;;;5013911;28;20181;-61
2022/04/08 00:24:04;;;;;;;136.03;81.17;;;;;;;;;;5014000;28;20428;-62
2022/04/08 00:26:30;;;;;;;133.68;82.50;;;;;;;;;;5014362;28;20925;-62
2022/04/08 00:28:56;;;;;;;135.98;81.85;;;;;;;;;;5013914;28;20201;-61
2022/04/08 00:31:22;;;;;;;139.20;82.18;;;;;;;;;;5013798;28;20557;-62
2022/04/08 00:33:49;;;;;;;134.98;80.72;;;;;;;;;;5013775;28;20259;-62
2022/04/08 00:36:15;;;;;;;144.90;83.38;;;;;;;;;;5013924;28;20680;-62
2022/04/08 00:38:41;;;;;;;149.17;83.87;;;;;;;;;;5013842;28;20181;-62
2022/04/08 00:41:07;;;;;;;144.77;85.65;;;;;;;;;;5013503;28;20438;-62
2022/04/08 00:43:34;;;;;;;142.15;81.97;;;;;;;;;;5013698;28;20190;-62
2022/04/08 00:46:01;;;;;;;156.15;86.57;;;;;;;;;;5013628;28;20735;-62
2022/04/08 00:48:27;;;;;;;159.75;85.80;;;;;;;;;;5013570;28;20206;-62
2022/04/08 00:50:53;;;;;;;160.37;85.00;;;;;;;;;;5013275;28;20174;-61
2022/04/08 00:53:19;;;;;;;159.90;85.30;;;;;;;;;;5013604;28;20467;-61
2022/04/08 00:55:45;;;;;;;150.90;80.35;;;;;;;;;;5013540;28;20181;-61
2022/04/08 00:58:11;;;;;;;143.00;81.68;;;;;;;;;;5013434;28;20185;-61
2022/04/08 01:00:38;;;;;;;147.70;84.80;;;;;;;;;;5014107;28;20178;-61
2022/04/08 01:03:05;;;;;;;160.10;85.90;;;;;;;;;;5013779;28;20416;-61
2022/04/08 01:05:31;;;;;;;150.15;82.13;;;;;;;;;;5014099;28;20178;-61
2022/04/08 01:07:57;;;;;;;149.52;82.22;;;;;;;;;;5013434;28;20230;-61
2022/04/08 01:10:23;;;;;;;156.53;86.50;;;;;;;;;;5013803;28;20174;-61
2022/04/08 01:12:49;;;;;;;143.20;83.53;;;;;;;;;;5013684;28;20411;-61
2022/04/08 01:15:19;;;;;;;157.83;85.43;;;;;;;;;;5013612;28;20757;-61
2022/04/08 01:17:45;;;;;;;146.55;83.78;;;;;;;;;;5013513;28;20443;-61
2022/04/08 01:20:12;;;;;;;161.32;90.15;;;;;;;;;;5012882;28;20268;-61
2022/04/08 01:22:38;;;;;;;148.82;84.57;;;;;;;;;;5011986;28;20174;-61
2022/04/08 01:25:05;;;;;;;140.80;80.67;;;;;;;;;;5012823;28;20621;-61
2022/04/08 01:27:31;;;;;;;138.13;82.03;;;;;;;;;;5012706;28;20452;-61
2022/04/08 01:29:57;;;;;;;146.75;83.68;;;;;;;;;;5012773;28;20228;-59
2022/04/08 01:32:23;;;;;;;137.10;81.15;;;;;;;;;;5012648;28;20170;-61
2022/04/08 01:34:50;;;;;;;131.88;79.20;;;;;;;;;;5012617;28;20201;-61
2022/04/08 01:37:16;;;;;;;123.75;76.93;;;;;;;;;;5012708;28;20178;-61
2022/04/08 01:39:42;;;;;;;121.25;76.45;;;;;;;;;;5012561;28;20169;-61
2022/04/08 01:42:09;;;;;;;132.00;79.97;;;;;;;;;;5012259;28;20268;-61
2022/04/08 01:44:41;;;;;;;118.45;77.22;;;;;;;;;;5068835;28;20956;-61
2022/04/08 01:47:07;;;;;;;123.10;76.57;;;;;;;;;;5068807;28;20163;-61
2022/04/08 01:49:33;;;;;;;122.73;76.40;;;;;;;;;;5068776;28;20405;-62
2022/04/08 01:51:59;;;;;;;133.95;77.55;;;;;;;;;;5068521;28;20402;-62
2022/04/08 01:54:25;;;;;;;132.63;76.57;;;;;;;;;;5068625;28;20800;-62
2022/04/08 01:56:51;;;;;;;122.00;74.97;;;;;;;;;;5068797;28;20213;-62
2022/04/08 01:59:18;;;;;;;123.57;77.30;;;;;;;;;;5068658;28;20473;-62
2022/04/08 02:01:44;;;;;;;119.20;74.18;;;;;;;;;;5068262;28;20465;-62
2022/04/08 02:04:09;;;;;;;121.90;74.10;;;;;;;;;;5068324;28;20218;-61
2022/04/08 02:06:36;;;;;;;121.77;75.63;;;;;;;;;;5068427;28;20410;-61
2022/04/08 02:09:03;;;;;;;129.75;78.57;;;;;;;;;;5068288;28;20406;-61
2022/04/08 02:11:29;;;;;;;118.45;73.80;;;;;;;;;;5068220;28;20168;-62
2022/04/08 02:13:55;;;;;;;125.47;75.40;;;;;;;;;;5068270;28;20685;-61
2022/04/08 02:16:21;;;;;;;116.37;72.83;;;;;;;;;;5068281;28;20171;-62
2022/04/08 02:18:48;;;;;;;115.97;72.73;;;;;;;;;;5068352;28;20492;-61
2022/04/08 02:21:19;;;;;;;119.18;72.63;;;;;;;;;;5067943;28;20409;-60
2022/04/08 02:23:45;;;;;;;124.47;76.00;;;;;;;;;;5067906;28;20258;-61
2022/04/08 02:26:13;;;;;;;123.60;73.47;;;;;;;;;;5068056;28;20172;-61
2022/04/08 02:28:39;;;;;;;119.70;74.53;;;;;;;;;;5068030;28;20405;-61
2022/04/08 02:31:05;;;;;;;110.37;71.53;;;;;;;;;;5067784;28;20179;-62
2022/04/08 02:33:31;;;;;;;112.43;72.05;;;;;;;;;;5067838;28;20426;-62
2022/04/08 02:35:57;;;;;;;121.85;74.97;;;;;;;;;;5067861;28;20289;-61
2022/04/08 02:38:23;;;;;;;126.00;76.10;;;;;;;;;;5067801;28;20198;-61
2022/04/08 02:40:49;;;;;;;119.90;73.53;;;;;;;;;;5067505;28;20397;-62
2022/04/08 02:43:15;;;;;;;124.35;75.47;;;;;;;;;;5067495;28;20896;-61
2022/04/08 02:45:41;;;;;;;116.57;72.43;;;;;;;;;;5067655;28;20203;-62
2022/04/08 02:48:07;;;;;;;112.50;71.93;;;;;;;;;;5067541;28;20413;-62
2022/04/08 02:50:33;;;;;;;118.13;77.43;;;;;;;;;;5067153;28;20463;-61
2022/04/08 02:52:59;;;;;;;112.40;73.57;;;;;;;;;;5067444;28;20180;-61
2022/04/08 02:55:25;;;;;;;120.13;76.32;;;;;;;;;;5057837;28;20470;-61
2022/04/08 02:57:51;;;;;;;114.30;76.63;;;;;;;;;;5054213;28;20316;-62
2022/04/08 03:00:18;;;;;;;123.57;84.47;;;;;;;;;;5053827;28;20774;-62
2022/04/08 03:02:44;;;;;;;117.75;74.95;;;;;;;;;;5054090;28;20461;-62
2022/04/08 03:05:10;;;;;;;103.78;70.45;;;;;;;;;;5053901;28;20671;-62
2022/04/08 03:07:37;;;;;;;110.95;73.25;;;;;;;;;;5053991;28;20261;-61
2022/04/08 03:10:07;;;;;;;110.07;74.70;;;;;;;;;;5053908;28;20180;-62
2022/04/08 03:12:33;;;;;;;108.45;71.90;;;;;;;;;;5053965;28;20178;-62
2022/04/08 03:14:59;;;;;;;115.63;77.18;;;;;;;;;;5053827;28;20559;-61
2022/04/08 03:17:25;;;;;;;109.15;74.80;;;;;;;;;;5053904;28;20251;-61
2022/04/08 03:19:51;;;;;;;111.22;74.60;;;;;;;;;;5053691;28;20176;-62
2022/04/08 03:22:20;;;;;;;107.27;71.40;;;;;;;;;;5053414;28;20169;-61
2022/04/08 03:24:46;;;;;;;109.82;68.80;;;;;;;;;;5053644;28;20196;-61
2022/04/08 03:27:12;;;;;;;113.43;74.82;;;;;;;;;;5053597;28;20168;-62
2022/04/08 03:29:38;;;;;;;113.77;73.03;;;;;;;;;;5053625;28;20263;-61
2022/04/08 03:32:05;;;;;;;117.90;72.93;;;;;;;;;;5053470;28;20410;-61
2022/04/08 03:34:31;;;;;;;120.07;75.13;;;;;;;;;;5053419;28;20239;-61
2022/04/08 03:36:57;;;;;;;116.15;71.72;;;;;;;;;;5053489;28;20199;-61
2022/04/08 03:39:23;;;;;;;108.63;70.47;;;;;;;;;;5053476;28;20175;-61
2022/04/08 03:41:49;;;;;;;112.80;71.07;;;;;;;;;;5053128;28;20510;-61
2022/04/08 03:44:15;;;;;;;98.97;67.30;;;;;;;;;;5053075;28;20477;-62
2022/04/08 03:46:41;;;;;;;95.67;68.67;;;;;;;;;;5053366;28;20399;-61
2022/04/08 03:49:14;;;;;;;112.05;71.55;;;;;;;;;;5053158;28;20438;-61
2022/04/08 03:51:40;;;;;;;110.75;69.72;;;;;;;;;;5053253;28;20183;-61
2022/04/08 03:54:07;;;;;;;106.25;67.00;;;;;;;;;;5053076;28;20194;-61
2022/04/08 03:56:33;;;;;;;109.03;67.03;;;;;;;;;;5053083;28;20241;-61
2022/04/08 03:58:59;;;;;;;107.65;69.38;;;;;;;;;;5053530;28;20180;-61
2022/04/08 04:01:25;;;;;;;110.50;70.17;;;;;;;;;;5052767;28;20514;-62
2022/04/08 04:03:51;;;;;;;113.97;71.30;;;;;;;;;;5052862;28;20474;-61
2022/04/08 04:06:17;;;;;;;112.20;72.63;;;;;;;;;;5051871;28;20171;-61
2022/04/08 04:08:44;;;;;;;106.13;70.30;;;;;;;;;;5052857;28;20413;-60
2022/04/08 04:11:14;;;;;;;106.65;72.72;;;;;;;;;;5052634;28;20818;-61
2022/04/08 04:13:40;;;;;;;100.18;67.97;;;;;;;;;;5052837;28;20283;-61
2022/04/08 04:16:06;;;;;;;92.83;71.07;;;;;;;;;;5052598;28;20203;-61
2022/04/08 04:18:32;;;;;;;91.60;67.90;;;;;;;;;;5052706;28;20468;-61
2022/04/08 04:20:58;;;;;;;90.90;66.87;;;;;;;;;;5052298;28;20421;-61
2022/04/08 04:23:24;;;;;;;88.33;68.03;;;;;;;;;;5052455;28;20494;-61
2022/04/08 04:25:50;;;;;;;94.87;66.93;;;;;;;;;;5052576;28;20418;-61
2022/04/08 04:28:16;;;;;;;90.37;66.40;;;;;;;;;;5052687;28;20407;-61
2022/04/08 04:30:42;;;;;;;88.47;66.00;;;;;;;;;;5052200;28;20405;-61
2022/04/08 04:33:08;;;;;;;95.33;67.37;;;;;;;;;;5052578;28;20172;-62
2022/04/08 04:35:37;;;;;;;94.43;64.03;;;;;;;;;;5052555;28;20418;-61
2022/04/08 04:38:03;;;;;;;85.68;65.82;;;;;;;;;;5052303;28;20493;-61
2022/04/08 04:40:29;;;;;;;91.70;68.50;;;;;;;;;;5051944;28;20600;-61
2022/04/08 04:43:00;;;;;;;93.20;69.67;;;;;;;;;;5052084;28;20549;-62
2022/04/08 04:45:26;;;;;;;76.85;65.28;;;;;;;;;;5052017;28;20980;-61
2022/04/08 04:47:52;;;;;;;88.45;68.03;;;;;;;;;;5052288;28;20168;-62
2022/04/08 04:50:18;;;;;;;88.80;71.77;;;;;;;;;;5051899;28;20178;-62
2022/04/08 04:52:44;;;;;;;79.20;66.00;;;;;;;;;;5050750;28;20421;-62
2022/04/08 04:55:10;;;;;;;88.23;69.80;;;;;;;;;;5051758;28;20453;-62
2022/04/08 04:57:36;;;;;;;89.47;70.13;;;;;;;;;;5051912;28;20411;-62
2022/04/08 05:00:03;;;;;;;98.93;71.35;;;;;;;;;;5051817;28;20886;-62
2022/04/08 05:02:28;;;;;;;94.30;68.88;;;;;;;;;;5051571;28;20539;-62
2022/04/08 05:04:54;;;;;;;86.23;67.03;;;;;;;;;;5051812;28;20200;-62
2022/04/08 05:07:20;;;;;;;96.07;72.07;;;;;;;;;;5051780;28;20415;-62
2022/04/08 05:09:46;;;;;;;93.67;71.07;;;;;;;;;;5051614;28;20460;-62
2022/04/08 05:12:12;;;;;;;97.10;69.23;;;;;;;;;;5051618;28;20407;-62
2022/04/08 05:14:38;;;;;;;97.47;71.97;;;;;;;;;;5051545;28;21117;-62
2022/04/08 05:17:05;;;;;;;90.68;71.65;;;;;;;;;;5051519;28;20410;-62
2022/04/08 05:19:30;;;;;;;89.93;70.20;;;;;;;;;;5051550;28;20266;-62
2022/04/08 05:21:56;;;;;;;91.17;70.57;;;;;;;;;;5051422;28;20208;-60
2022/04/08 05:24:22;;;;;;;88.67;71.47;;;;;;;;;;5051367;28;20470;-62
2022/04/08 05:26:48;;;;;;;89.47;70.80;;;;;;;;;;5051636;28;20418;-62
2022/04/08 05:29:14;;;;;;;81.43;71.03;;;;;;;;;;5051655;28;20490;-62
2022/04/08 05:31:40;;;;;;;81.30;70.17;;;;;;;;;;5051271;28;20303;-62
2022/04/08 05:34:06;;;;;;;86.60;70.50;;;;;;;;;;5051428;28;20488;-61
2022/04/08 05:36:32;;;;;;;78.00;69.27;;;;;;;;;;5051501;28;20407;-61
2022/04/08 05:38:58;;;;;;;77.05;67.57;;;;;;;;;;5052282;28;20418;-61
2022/04/08 05:41:24;;;;;;;86.60;72.27;;;;;;;;;;5051148;28;20176;-62
2022/04/08 05:43:50;;;;;;;81.83;70.97;;;;;;;;;;5050999;28;20556;-61
2022/04/08 05:46:16;;;;;;;85.27;72.30;;;;;;;;;;5051329;28;20408;-62
2022/04/08 05:48:42;;;;;;;90.77;71.10;;;;;;;;;;5051281;28;20817;-62
2022/04/08 05:51:08;;;;;;;83.40;71.47;;;;;;;;;;5051032;28;20925;-62
2022/04/08 05:53:34;;;;;;;84.03;70.00;;;;;;;;;;5051031;28;20195;-62
2022/04/08 05:56:02;;;;;;;92.50;75.10;;;;;;;;;;5051170;28;20485;-60
2022/04/08 05:58:28;;;;;;;86.85;73.68;;;;;;;;;;5051053;28;20413;-61
2022/04/08 06:00:55;;;;;;;86.45;75.25;;;;;;;;;;5051036;28;20211;-62
2022/04/08 06:03:21;;;;;;;91.63;74.53;;;;;;;;;;5050854;28;20204;-61
2022/04/08 06:05:47;;;;;;;87.33;70.07;;;;;;;;;;5051139;28;20201;-62
2022/04/08 06:08:13;;;;;;;89.82;72.03;;;;;;;;;;5051036;28;20418;-61
2022/04/08 06:10:39;;;;;;;92.63;74.33;;;;;;;;;;5050695;28;20176;-62
2022/04/08 06:13:05;;;;;;;91.90;71.43;;;;;;;;;;5044976;28;20495;-62
2022/04/08 06:15:31;;;;;;;94.47;72.82;;;;;;;;;;5051032;28;20473;-61
2022/04/08 06:17:58;;;;;;;92.55;68.90;;;;;;;;;;5051013;28;20180;-62
2022/04/08 06:20:24;;;;;;;94.93;74.22;;;;;;;;;;5050706;28;20204;-62
2022/04/08 06:22:50;;;;;;;97.38;70.38;;;;;;;;;;5050642;28;20208;-62
2022/04/08 06:25:18;;;;;;;89.43;69.22;;;;;;;;;;5050964;28;20679;-62
2022/04/08 06:27:47;;;;;;;96.93;71.07;;;;;;;;;;5050932;28;20176;-61
2022/04/08 06:30:17;;;;;;;102.22;70.13;;;;;;;;;;5052351;28;20571;-61
2022/04/08 06:32:43;;;;;;;98.28;68.55;;;;;;;;;;5054623;28;20269;-61
2022/04/08 06:35:09;;;;;;;93.70;65.77;;;;;;;;;;5054614;28;20227;-61
2022/04/08 06:37:35;;;;;;;88.82;66.07;;;;;;;;;;5054591;28;20402;-62
2022/04/08 06:40:04;;;;;;;81.07;64.80;;;;;;;;;;5054593;28;20238;-61
2022/04/08 06:42:30;;;;;;;93.53;69.97;;;;;;;;;;5054393;28;20433;-61
2022/04/08 06:44:56;;;;;;;79.80;63.77;;;;;;;;;;5054477;28;20278;-61
2022/04/08 06:47:23;;;;;;;93.93;67.47;;;;;;;;;;5054449;28;20410;-61
2022/04/08 06:49:49;;;;;;;87.82;65.75;;;;;;;;;;5054301;28;20498;-61
2022/04/08 06:52:16;;;;;;;97.90;67.07;;;;;;;;;;5054265;28;20255;-62
2022/04/08 06:54:42;;;;;;;87.47;65.78;;;;;;;;;;5054218;28;20453;-61
2022/04/08 06:57:08;;;;;;;81.97;61.33;;;;;;;;;;5054520;28;20179;-61
2022/04/08 06:59:34;;;;;;;94.88;64.10;;;;;;;;;;5054271;28;20187;-61
2022/04/08 07:02:00;;;;;;;94.65;66.78;;;;;;;;;;5054085;28;20324;-60
2022/04/08 07:04:26;;;;;;;92.00;64.67;;;;;;;;;;5052839;28;20235;-61
2022/04/08 07:06:52;;;;;;;95.87;65.27;;;;;;;;;;5054093;28;20434;-61
2022/04/08 07:09:19;;;;;;;93.35;63.50;;;;;;;;;;5054024;28;20407;-61
2022/04/08 07:11:46;;;;;;;79.55;60.67;;;;;;;;;;5045071;28;20184;-61
2022/04/08 07:14:12;;;;;;;82.75;62.35;;;;;;;;;;5053915;28;20199;-59
2022/04/08 07:16:38;;;;;;;87.03;64.88;;;;;;;;;;5053816;28;20172;-61
2022/04/08 07:19:05;;;;;;;87.68;63.85;;;;;;;;;;5053921;28;20719;-61
2022/04/08 07:21:31;;;;;;;89.28;62.58;;;;;;;;;;5052504;28;20180;-61
2022/04/08 07:23:57;;;;;;;77.63;61.67;;;;;;;;;;5053711;28;20712;-61
2022/04/08 07:26:23;;;;;;;80.53;61.37;;;;;;;;;;5052657;28;20491;-60
2022/04/08 07:28:49;;;;;;;89.20;61.50;;;;;;;;;;5053719;28;20407;-62
2022/04/08 07:31:14;;;;;;;87.87;64.43;;;;;;;;;;5050154;28;20513;-63
2022/04/08 07:33:40;;;;;;;91.90;61.10;;;;;;;;;;5051292;28;20441;-61
2022/04/08 07:36:06;;;;;;;92.80;64.35;;;;;;;;;;5051690;28;20484;-61
2022/04/08 07:38:32;;;;;;;90.30;62.83;;;;;;;;;;5051509;28;20175;-61
2022/04/08 07:40:58;;;;;;;94.50;61.30;;;;;;;;;;5047179;28;20501;-61
2022/04/08 07:43:25;;;;;;;80.50;59.50;;;;;;;;;;5053141;28;20856;-61
2022/04/08 07:45:51;;;;;;;97.95;62.88;;;;;;;;;;5053524;28;20210;-61
2022/04/08 07:48:17;;;;;;;90.20;61.27;;;;;;;;;;5053462;28;20651;-61
2022/04/08 07:50:43;;;;;;;88.10;57.50;;;;;;;;;;5052986;28;20448;-61
2022/04/08 07:53:09;;;;;;;99.00;64.47;;;;;;;;;;5053170;28;20265;-61
2022/04/08 07:55:35;;;;;;;94.17;59.47;;;;;;;;;;5053246;28;20414;-61
2022/04/08 07:58:01;;;;;;;102.22;69.88;;;;;;;;;;5052543;28;20442;-61
2022/04/08 08:00:28;;;;;;;108.20;62.67;;;;;;;;;;5041448;28;20223;-62
2022/04/08 08:02:54;;;;;;;98.78;60.92;;;;;;;;;;5032425;28;20462;-61
2022/04/08 08:05:20;;;;;;;88.47;58.65;;;;;;;;;;5032567;28;20224;-61
2022/04/08 08:07:50;;;;;;;101.10;62.22;;;;;;;;;;5032461;28;20175;-62
2022/04/08 08:10:17;;;;;;;93.72;63.50;;;;;;;;;;5030780;28;20180;-62
2022/04/08 08:12:43;;;;;;;94.07;59.35;;;;;;;;;;5032942;28;20281;-62
2022/04/08 08:15:10;;;;;;;97.03;61.17;;;;;;;;;;5032802;28;20844;-62
2022/04/08 08:17:36;;;;;;;106.03;65.25;;;;;;;;;;5032893;28;20410;-62
2022/04/08 08:20:02;;;;;;;104.18;64.18;;;;;;;;;;5032600;28;20173;-60
2022/04/08 08:22:28;;;;;;;102.83;63.83;;;;;;;;;;5032688;28;20176;-61
2022/04/08 08:24:53;;;;;;;96.27;60.47;;;;;;;;;;5051572;28;20473;-62
2022/04/08 08:27:19;;;;;;;100.30;62.67;;;;;;;;;;5052378;28;20407;-61
2022/04/08 08:29:45;;;;;;;104.33;64.33;;;;;;;;;;5050416;28;20414;-61
2022/04/08 08:32:11;;;;;;;102.77;62.67;;;;;;;;;;5052258;28;20442;-62
2022/04/08 08:34:37;;;;;;;104.53;68.03;;;;;;;;;;5050505;28;20442;-60
2022/04/08 08:37:03;;;;;;;105.47;67.17;;;;;;;;;;5050180;28;20419;-62
2022/04/08 08:39:29;;;;;;;101.90;61.78;;;;;;;;;;5048875;28;20418;-62
2022/04/08 08:41:56;;;;;;;97.23;61.93;;;;;;;;;;5049891;28;20187;-62
2022/04/08 08:44:22;;;;;;;111.07;72.00;;;;;;;;;;5050885;28;20466;-62
2022/04/08 08:46:49;;;;;;;87.25;62.45;;;;;;;;;;5052157;28;20624;-57
2022/04/08 08:49:18;;;;;;;95.90;65.20;;;;;;;;;;5049280;28;20537;-62
2022/04/08 08:51:46;;;;;;;99.15;68.22;;;;;;;;;;5045467;28;20181;-62
2022/04/08 08:54:12;;;;;;;88.45;65.15;;;;;;;;;;5043522;28;20199;-62
2022/04/08 08:56:38;;;;;;;94.60;66.07;;;;;;;;;;5037321;28;20622;-60
2022/04/08 08:59:04;;;;;;;87.70;65.80;;;;;;;;;;5044528;28;20183;-62
2022/04/08 09:01:30;;;;;;;88.10;63.90;;;;;;;;;;5043967;28;20459;-62
2022/04/08 09:03:56;;;;;;;101.15;67.60;;;;;;;;;;5044574;28;20473;-62
2022/04/08 09:06:22;;;;;;;93.10;59.57;;;;;;;;;;5050360;28;20175;-59
2022/04/08 09:08:56;;;;;;;92.17;62.87;;;;;;;;;;5035142;28;20902;-60
2022/04/08 09:11:26;;;;;;;97.50;65.70;;;;;;;;;;5049876;28;20746;-60
2022/04/08 09:13:54;;;;;;;96.00;64.60;;;;;;;;;;5050783;28;20283;-60
2022/04/08 09:16:27;;;;;;;94.50;62.78;;;;;;;;;;5051401;28;20180;-60
2022/04/08 09:18:54;;;;;;;97.20;65.25;;;;;;;;;;5050904;28;20184;-60
2022/04/08 09:21:26;;;;;;;94.80;64.03;;;;;;;;;;5051174;28;20183;-58
2022/04/08 09:23:52;;;;;;;90.25;62.92;;;;;;;;;;5051042;28;20887;-60
2022/04/08 09:26:19;;;;;;;89.75;62.13;;;;;;;;;;5051321;28;20180;-60
2022/04/08 09:28:45;;;;;;;94.50;63.78;;;;;;;;;;5050647;28;20203;-59
2022/04/08 09:31:18;;;;;;;95.18;62.88;;;;;;;;;;5050682;28;20538;-60
2022/04/08 09:33:48;;;;;;;90.50;62.67;;;;;;;;;;5051092;28;20188;-60
2022/04/08 09:36:14;;;;;;;92.55;63.63;;;;;;;;;;5051430;28;20610;-60
2022/04/08 09:38:49;;;;;;;98.70;63.90;;;;;;;;;;5051330;28;20278;-60
2022/04/08 09:41:15;;;;;;;90.00;60.65;;;;;;;;;;5050884;28;20771;-60
2022/04/08 09:43:41;;;;;;;92.75;59.90;;;;;;;;;;5047522;28;20215;-63
2022/04/08 09:46:16;;;;;;;60.87;54.47;;;;;;;;;;5040099;28;20258;-61
2022/04/08 09:48:42;;;;;;;66.55;56.83;;;;;;;;;;5039232;28;20411;-61
2022/04/08 09:51:12;;;;;;;80.10;63.83;;;;;;;;;;5039478;28;20168;-61
2022/04/08 09:53:38;;;;;;;87.25;61.95;;;;;;;;;;5040975;28;20800;-61
2022/04/08 09:56:09;;;;;;;97.55;66.70;;;;;;;;;;5038309;28;20211;-61
2022/04/08 09:58:36;;;;;;;83.32;63.53;;;;;;;;;;5039061;28;20263;-61
2022/04/08 10:01:02;;;;;;;87.40;62.40;;;;;;;;;;5040456;28;20172;-61
2022/04/08 10:03:28;;;;;;;86.40;62.90;;;;;;;;;;5040014;28;20208;-60
2022/04/08 10:05:55;;;;;;;85.65;62.63;;;;;;;;;;5041639;28;20180;-61
2022/04/08 10:08:21;;;;;;;85.15;62.92;;;;;;;;;;5044711;28;20214;-61
2022/04/08 10:10:51;;;;;;;87.88;63.17;;;;;;;;;;5043952;28;20203;-61
2022/04/08 10:13:20;;;;;;;81.72;62.25;;;;;;;;;;5042495;28;20191;-61
2022/04/08 10:16:05;;;;;;;79.82;61.28;;;;;;;;;;5043815;28;20178;-61
2022/04/08 10:18:35;;;;;;;85.60;64.88;;;;;;;;;;5043986;28;20262;-61
2022/04/08 10:21:01;;;;;;;84.20;63.50;;;;;;;;;;5042562;28;20795;-61
2022/04/08 10:23:35;;;;;;;86.50;61.37;;;;;;;;;;5044124;28;20234;-61
2022/04/08 10:26:02;;;;;;;89.28;65.72;;;;;;;;;;5042920;28;20460;-61
2022/04/08 10:28:36;;;;;;;82.60;62.60;;;;;;;;;;5044101;28;20801;-60
2022/04/08 10:31:02;;;;;;;98.78;66.60;;;;;;;;;;5044920;28;20574;-61
2022/04/08 10:33:30;;;;;;;94.70;65.90;;;;;;;;;;5054462;28;20192;-59
2022/04/08 10:36:06;;;;;;;92.13;68.40;;;;;;;;;;5054563;28;20164;-59
2022/04/08 10:38:36;;;;;;;99.47;69.38;;;;;;;;;;5050873;28;20172;-61
2022/04/08 10:41:02;;;;;;;94.45;68.43;;;;;;;;;;5052071;28;20184;-54
2022/04/08 10:43:28;;;;;;;105.75;71.47;;;;;;;;;;5049266;28;20258;-63
2022/04/08 10:45:56;;;;;;;106.57;71.10;;;;;;;;;;5054056;28;20642;-62
2022/04/08 10:48:23;;;;;;;107.05;78.75;;;;;;;;;;5053028;28;20406;-61
2022/04/08 10:50:50;;;;;;;104.85;72.55;;;;;;;;;;5050577;28;20191;-61
2022/04/08 10:53:21;;;;;;;106.38;75.95;;;;;;;;;;5051992;28;20269;-61
2022/04/08 10:55:54;;;;;;;99.40;70.35;;;;;;;;;;5054060;28;20172;-61
2022/04/08 10:58:30;;;;;;;96.03;70.78;;;;;;;;;;5053870;28;20758;-61
2022/04/08 11:00:56;;;;;;;108.55;72.30;;;;;;;;;;5052374;28;20314;-62
2022/04/08 11:03:29;;;;;;;98.68;68.10;;;;;;;;;;5043153;28;20709;-63
2022/04/08 11:05:55;;;;;;;98.30;72.10;;;;;;;;;;5040905;28;20191;-61
2022/04/08 11:08:25;;;;;;;75.80;67.30;;;;;;;;;;5046869;28;20172;-61
2022/04/08 11:10:58;;;;;;;76.40;68.55;;;;;;;;;;5044799;28;20260;-61
2022/04/08 11:13:24;;;;;;;70.97;63.35;;;;;;;;;;5041665;28;20168;-61
2022/04/08 11:15:50;;;;;;;71.32;63.63;;;;;;;;;;5040046;28;20184;-61
2022/04/08 11:18:17;;;;;;;75.82;65.20;;;;;;;;;;5045846;28;20188;-61
2022/04/08 11:20:47;;;;;;;72.50;64.60;;;;;;;;;;5043834;28;20505;-56
2022/04/08 11:23:13;;;;;;;82.10;69.53;;;;;;;;;;5042615;28;20290;-60
2022/04/08 11:25:39;;;;;;;78.17;61.63;;;;;;;;;;5040697;28;20262;-61
2022/04/08 11:28:06;;;;;;;85.33;72.47;;;;;;;;;;5042797;28;20831;-60
2022/04/08 11:30:33;;;;;;;69.97;57.47;;;;;;;;;;5041812;28;20831;-61
2022/04/08 11:33:00;;;;;;;97.60;64.20;;;;;;;;;;5045667;28;20184;-61
2022/04/08 11:35:33;;;;;;;102.60;62.80;;;;;;;;;;5043240;28;20192;-58
2022/04/08 11:37:59;;;;;;;98.60;61.95;;;;;;;;;;5042713;28;20247;-61
2022/04/08 11:40:25;;;;;;;102.22;68.55;;;;;;;;;;5040278;28;20213;-61
2022/04/08 11:42:51;;;;;;;106.27;67.07;;;;;;;;;;5042600;28;20190;-61
2022/04/08 11:45:17;;;;;;;98.00;63.50;;;;;;;;;;5045889;28;20430;-61
2022/04/08 11:47:46;;;;;;;101.60;62.95;;;;;;;;;;5043633;28;20490;-61
2022/04/08 11:50:13;;;;;;;101.93;64.30;;;;;;;;;;5041375;28;20200;-61
2022/04/08 11:52:39;;;;;;;109.38;64.93;;;;;;;;;;5041589;28;20180;-61
2022/04/08 11:55:06;;;;;;;105.60;66.30;;;;;;;;;;5042890;28;20635;-61
2022/04/08 11:57:33;;;;;;;107.60;65.90;;;;;;;;;;5041603;28;20256;-61
2022/04/08 12:00:01;;;;;;;101.05;63.22;;;;;;;;;;5040969;28;20255;-61
2022/04/08 12:02:29;;;;;;;100.07;63.05;;;;;;;;;;5042723;28;20200;-60
2022/04/08 12:04:55;;;;;;;92.65;62.38;;;;;;;;;;5041915;28;20239;-61
2022/04/08 12:07:25;;;;;;;99.25;65.55;;;;;;;;;;5040987;28;20226;-58
2022/04/08 12:09:54;;;;;;;108.55;66.85;;;;;;;;;;5049868;28;20254;-62
2022/04/08 12:12:27;;;;;;;108.72;65.90;;;;;;;;;;5052394;28;20205;-62
2022/04/08 12:14:53;;;;;;;105.68;65.80;;;;;;;;;;5048052;28;20243;-61
2022/04/08 12:17:20;;;;;;;109.17;66.93;;;;;;;;;;5052401;28;20221;-61
2022/04/08 12:19:47;;;;;;;104.07;63.42;;;;;;;;;;5049634;28;20411;-61
2022/04/08 12:22:14;;;;;;;101.85;64.45;;;;;;;;;;5043033;28;20186;-61
2022/04/08 12:24:42;;;;;;;109.85;65.88;;;;;;;;;;5043291;28;20591;-61
2022/04/08 12:27:11;;;;;;;109.07;68.10;;;;;;;;;;5045119;28;20671;-60
2022/04/08 12:29:39;;;;;;;102.80;64.95;;;;;;;;;;5042768;28;20720;-61
2022/04/08 12:32:12;;;;;;;110.85;66.57;;;;;;;;;;5037625;28;20242;-62
2022/04/08 12:34:38;;;;;;;105.13;61.25;;;;;;;;;;5042469;28;20248;-61
2022/04/08 12:37:04;;;;;;;106.37;66.33;;;;;;;;;;5042789;28;20204;-62
2022/04/08 12:39:29;;;;;;;110.00;67.57;;;;;;;;;;5040931;28;20432;-61
2022/04/08 12:41:59;;;;;;;109.60;64.90;;;;;;;;;;5041439;28;20422;-61
2022/04/08 12:44:25;;;;;;;110.82;65.25;;;;;;;;;;5040243;28;20466;-61
2022/04/08 12:46:52;;;;;;;109.82;65.43;;;;;;;;;;5040675;28;20168;-62
2022/04/08 12:49:18;;;;;;;108.75;64.18;;;;;;;;;;5041856;28;20329;-62
2022/04/08 12:51:44;;;;;;;104.07;62.90;;;;;;;;;;5038535;28;20214;-62
2022/04/08 12:54:11;;;;;;;106.50;63.97;;;;;;;;;;5040797;28;20282;-62
2022/04/08 12:56:37;;;;;;;101.95;64.53;;;;;;;;;;5041936;28;21070;-59
2022/04/08 12:59:03;;;;;;;101.20;64.80;;;;;;;;;;5039070;28;20194;-60
2022/04/08 13:01:29;;;;;;;70.80;60.73;;;;;;;;;;5041417;28;20529;-60
2022/04/08 13:03:55;;;;;;;97.50;67.20;;;;;;;;;;5040031;28;20466;-63
2022/04/08 13:06:21;;;;;;;106.45;65.07;;;;;;;;;;5040084;28;20431;-62
2022/04/08 13:08:47;;;;;;;105.33;65.77;;;;;;;;;;5042951;28;20226;-61
2022/04/08 13:11:13;;;;;;;106.83;67.97;;;;;;;;;;5042132;28;21243;-60
2022/04/08 13:13:39;;;;;;;105.80;65.47;;;;;;;;;;5041254;28;20437;-60
2022/04/08 13:16:05;;;;;;;109.70;65.97;;;;;;;;;;5039935;28;20435;-60
2022/04/08 13:18:31;;;;;;;114.20;69.32;;;;;;;;;;5039926;28;20424;-61
2022/04/08 13:20:58;;;;;;;107.40;69.05;;;;;;;;;;5041115;28;20176;-59
2022/04/08 13:23:24;;;;;;;113.63;69.03;;;;;;;;;;5041995;28;20199;-62
2022/04/08 13:25:50;;;;;;;101.23;66.73;;;;;;;;;;5044053;28;20181;-61
2022/04/08 13:28:16;;;;;;;100.77;64.73;;;;;;;;;;5038566;28;20422;-61
2022/04/08 13:30:42;;;;;;;101.22;63.35;;;;;;;;;;5048349;28;20472;-61
2022/04/08 13:33:09;;;;;;;109.60;67.05;;;;;;;;;;5044548;28;20191;-61
2022/04/08 13:35:35;;;;;;;108.65;65.32;;;;;;;;;;5051283;28;20183;-61
2022/04/08 13:38:01;;;;;;;105.70;66.10;;;;;;;;;;5044824;28;20552;-62
2022/04/08 13:40:27;;;;;;;102.60;64.53;;;;;;;;;;5045391;28;20187;-61
2022/04/08 13:42:55;;;;;;;103.55;65.45;;;;;;;;;;5044766;28;20250;-61
2022/04/08 13:45:21;;;;;;;99.80;62.50;;;;;;;;;;5046696;28;20264;-61
2022/04/08 13:47:49;;;;;;;102.40;64.47;;;;;;;;;;5051078;28;20172;-61
2022/04/08 13:50:15;;;;;;;103.85;66.18;;;;;;;;;;5050283;28;20397;-61
2022/04/08 13:52:41;;;;;;;98.37;61.60;;;;;;;;;;5049554;28;20175;-61
2022/04/08 13:55:07;;;;;;;98.73;61.67;;;;;;;;;;5047673;28;20461;-60
2022/04/08 13:57:33;;;;;;;83.53;59.17;;;;;;;;;;5043741;28;20421;-61
2022/04/08 13:59:59;;;;;;;87.97;63.97;;;;;;;;;;5048755;28;20180;-61
2022/04/08 14:02:26;;;;;;;95.50;63.90;;;;;;;;;;5048491;28;20975;-60
2022/04/08 14:04:52;;;;;;;106.70;62.63;;;;;;;;;;5048085;28;20217;-61
2022/04/08 14:07:18;;;;;;;101.90;59.03;;;;;;;;;;5049791;28;20638;-61
2022/04/08 14:09:45;;;;;;;106.25;59.40;;;;;;;;;;5050631;28;20410;-61